sensor_id;sensor_type;location;lat;lon;timestamp;P1;durP1;ratioP1;P2;durP2;ratioP2
19341;SDS011;9807;48.258;12.690;2023-04-25T00:01:31;4.23;;;2.37;;
19341;SDS011;9807;48.258;12.690;2023-04-25T00:03:59;4.13;;;2.50;;
19341;SDS011;9807;48.258;12.690;2023-04-25T00:06:26;4.00;;;2.50;;
19341;SDS011;9807;48.258;12.690;2023-04-25T00:08:52;3.00;;;2.20;;
19341;SDS011;9807;48.258;12.690;2023-04-25T00:11:18;2.93;;;2.37;;
19341;SDS011;9807;48.258;12.690;2023-04-25T00:13:44;3.43;;;2.23;;
19341;SDS011;9807;48.258;12.690;2023-04-25T00:16:11;3.07;;;2.17;;
19341;SDS011;9807;48.258;12.690;2023-04-25T00:18:38;2.40;;;1.80;;
19341;SDS011;9807;48.258;12.690;2023-04-25T00:21:04;3.30;;;2.20;;
19341;SDS011;9807;48.258;12.690;2023-04-25T00:23:31;2.93;;;2.30;;
19341;SDS011;9807;48.258;12.690;2023-04-25T00:25:56;4.27;;;2.30;;
19341;SDS011;9807;48.258;12.690;2023-04-25T00:28:22;2.60;;;2.07;;
19341;SDS011;9807;48.258;12.690;2023-04-25T00:30:48;2.43;;;2.10;;
19341;SDS011;9807;48.258;12.690;2023-04-25T00:33:13;5.03;;;3.30;;
19341;SDS011;9807;48.258;12.690;2023-04-25T00:35:42;4.77;;;2.73;;
19341;SDS011;9807;48.258;12.690;2023-04-25T00:38:08;4.37;;;2.60;;
19341;SDS011;9807;48.258;12.690;2023-04-25T00:40:34;3.93;;;2.90;;
19341;SDS011;9807;48.258;12.690;2023-04-25T00:43:00;4.23;;;2.30;;
19341;SDS011;9807;48.258;12.690;2023-04-25T00:45:28;3.10;;;2.00;;
19341;SDS011;9807;48.258;12.690;2023-04-25T00:47:55;4.73;;;2.63;;
19341;SDS011;9807;48.258;12.690;2023-04-25T00:50:21;3.33;;;2.20;;
19341;SDS011;9807;48.258;12.690;2023-04-25T00:52:47;3.80;;;2.50;;
19341;SDS011;9807;48.258;12.690;2023-04-25T00:55:13;7.70;;;3.53;;
19341;SDS011;9807;48.258;12.690;2023-04-25T00:57:38;5.33;;;3.50;;
19341;SDS011;9807;48.258;12.690;2023-04-25T01:00:06;3.20;;;2.30;;
19341;SDS011;9807;48.258;12.690;2023-04-25T01:02:34;3.07;;;2.20;;
19341;SDS011;9807;48.258;12.690;2023-04-25T01:05:03;4.13;;;2.53;;
19341;SDS011;9807;48.258;12.690;2023-04-25T01:07:29;6.83;;;3.97;;
19341;SDS011;9807;48.258;12.690;2023-04-25T01:09:55;6.93;;;4.27;;
19341;SDS011;9807;48.258;12.690;2023-04-25T01:12:21;5.87;;;3.40;;
19341;SDS011;9807;48.258;12.690;2023-04-25T01:14:48;5.87;;;3.13;;
19341;SDS011;9807;48.258;12.690;2023-04-25T01:17:14;5.47;;;2.43;;
19341;SDS011;9807;48.258;12.690;2023-04-25T01:19:40;4.53;;;2.60;;
19341;SDS011;9807;48.258;12.690;2023-04-25T01:22:06;2.67;;;2.20;;
19341;SDS011;9807;48.258;12.690;2023-04-25T01:24:32;3.87;;;2.23;;
19341;SDS011;9807;48.258;12.690;2023-04-25T01:27:01;5.37;;;3.50;;
19341;SDS011;9807;48.258;12.690;2023-04-25T01:29:28;4.80;;;3.07;;
19341;SDS011;9807;48.258;12.690;2023-04-25T01:31:54;6.37;;;4.00;;
19341;SDS011;9807;48.258;12.690;2023-04-25T01:34:20;8.33;;;3.90;;
19341;SDS011;9807;48.258;12.690;2023-04-25T01:36:49;7.77;;;4.07;;
19341;SDS011;9807;48.258;12.690;2023-04-25T01:39:16;6.77;;;3.80;;
19341;SDS011;9807;48.258;12.690;2023-04-25T01:41:43;7.30;;;3.83;;
19341;SDS011;9807;48.258;12.690;2023-04-25T01:44:08;7.27;;;4.00;;
19341;SDS011;9807;48.258;12.690;2023-04-25T01:46:34;6.40;;;3.27;;
19341;SDS011;9807;48.258;12.690;2023-04-25T01:49:00;3.10;;;2.40;;
19341;SDS011;9807;48.258;12.690;2023-04-25T01:51:27;4.93;;;2.50;;
19341;SDS011;9807;48.258;12.690;2023-04-25T01:53:53;5.47;;;2.67;;
19341;SDS011;9807;48.258;12.690;2023-04-25T01:56:20;6.70;;;3.87;;
19341;SDS011;9807;48.258;12.690;2023-04-25T01:58:45;6.50;;;3.97;;
19341;SDS011;9807;48.258;12.690;2023-04-25T02:01:11;5.63;;;3.80;;
19341;SDS011;9807;48.258;12.690;2023-04-25T02:03:37;4.93;;;3.73;;
19341;SDS011;9807;48.258;12.690;2023-04-25T02:06:03;5.97;;;4.03;;
19341;SDS011;9807;48.258;12.690;2023-04-25T02:08:28;6.90;;;4.00;;
19341;SDS011;9807;48.258;12.690;2023-04-25T02:10:55;6.07;;;3.80;;
19341;SDS011;9807;48.258;12.690;2023-04-25T02:13:21;8.40;;;3.30;;
19341;SDS011;9807;48.258;12.690;2023-04-25T02:15:46;3.63;;;2.60;;
19341;SDS011;9807;48.258;12.690;2023-04-25T02:18:12;3.10;;;2.40;;
19341;SDS011;9807;48.258;12.690;2023-04-25T02:20:38;2.63;;;2.33;;
19341;SDS011;9807;48.258;12.690;2023-04-25T02:23:03;2.30;;;2.00;;
19341;SDS011;9807;48.258;12.690;2023-04-25T02:25:29;3.60;;;2.50;;
19341;SDS011;9807;48.258;12.690;2023-04-25T02:27:55;2.93;;;2.10;;
19341;SDS011;9807;48.258;12.690;2023-04-25T02:30:21;3.50;;;2.23;;
19341;SDS011;9807;48.258;12.690;2023-04-25T02:32:46;3.03;;;2.60;;
19341;SDS011;9807;48.258;12.690;2023-04-25T02:35:12;10.10;;;3.30;;
19341;SDS011;9807;48.258;12.690;2023-04-25T02:37:38;5.00;;;3.40;;
19341;SDS011;9807;48.258;12.690;2023-04-25T02:40:05;4.70;;;2.80;;
19341;SDS011;9807;48.258;12.690;2023-04-25T02:42:37;5.80;;;3.80;;
19341;SDS011;9807;48.258;12.690;2023-04-25T02:45:03;3.37;;;2.67;;
19341;SDS011;9807;48.258;12.690;2023-04-25T02:47:29;4.13;;;2.20;;
19341;SDS011;9807;48.258;12.690;2023-04-25T02:49:55;3.03;;;2.10;;
19341;SDS011;9807;48.258;12.690;2023-04-25T02:52:21;3.77;;;2.60;;
19341;SDS011;9807;48.258;12.690;2023-04-25T02:54:47;4.97;;;2.90;;
19341;SDS011;9807;48.258;12.690;2023-04-25T02:57:12;3.27;;;2.30;;
19341;SDS011;9807;48.258;12.690;2023-04-25T02:59:38;3.07;;;2.30;;
19341;SDS011;9807;48.258;12.690;2023-04-25T03:02:04;2.67;;;2.40;;
19341;SDS011;9807;48.258;12.690;2023-04-25T03:04:29;3.83;;;2.40;;
19341;SDS011;9807;48.258;12.690;2023-04-25T03:06:55;2.20;;;2.00;;
19341;SDS011;9807;48.258;12.690;2023-04-25T03:09:21;2.60;;;2.07;;
19341;SDS011;9807;48.258;12.690;2023-04-25T03:11:47;3.07;;;2.40;;
19341;SDS011;9807;48.258;12.690;2023-04-25T03:14:12;3.53;;;2.27;;
19341;SDS011;9807;48.258;12.690;2023-04-25T03:16:38;2.63;;;2.27;;
19341;SDS011;9807;48.258;12.690;2023-04-25T03:19:04;3.47;;;2.17;;
19341;SDS011;9807;48.258;12.690;2023-04-25T03:21:31;2.50;;;2.23;;
19341;SDS011;9807;48.258;12.690;2023-04-25T03:24:01;3.13;;;2.60;;
19341;SDS011;9807;48.258;12.690;2023-04-25T03:26:28;2.30;;;2.00;;
19341;SDS011;9807;48.258;12.690;2023-04-25T03:28:54;2.90;;;2.40;;
19341;SDS011;9807;48.258;12.690;2023-04-25T03:31:20;2.40;;;2.20;;
19341;SDS011;9807;48.258;12.690;2023-04-25T03:33:46;3.43;;;2.60;;
19341;SDS011;9807;48.258;12.690;2023-04-25T03:36:11;4.00;;;2.80;;
19341;SDS011;9807;48.258;12.690;2023-04-25T03:38:37;3.60;;;2.80;;
19341;SDS011;9807;48.258;12.690;2023-04-25T03:41:03;9.20;;;3.30;;
19341;SDS011;9807;48.258;12.690;2023-04-25T03:43:29;7.30;;;3.57;;
19341;SDS011;9807;48.258;12.690;2023-04-25T03:45:55;6.60;;;3.30;;
19341;SDS011;9807;48.258;12.690;2023-04-25T03:48:21;6.13;;;3.03;;
19341;SDS011;9807;48.258;12.690;2023-04-25T03:50:47;4.20;;;2.80;;
19341;SDS011;9807;48.258;12.690;2023-04-25T03:53:13;4.00;;;2.60;;
19341;SDS011;9807;48.258;12.690;2023-04-25T03:55:39;2.30;;;2.00;;
19341;SDS011;9807;48.258;12.690;2023-04-25T03:58:05;6.87;;;2.77;;
19341;SDS011;9807;48.258;12.690;2023-04-25T04:00:30;4.50;;;2.57;;
19341;SDS011;9807;48.258;12.690;2023-04-25T04:02:56;3.23;;;2.60;;
19341;SDS011;9807;48.258;12.690;2023-04-25T04:05:22;3.43;;;3.07;;
19341;SDS011;9807;48.258;12.690;2023-04-25T04:07:48;2.83;;;2.50;;
19341;SDS011;9807;48.258;12.690;2023-04-25T04:10:13;4.07;;;2.40;;
19341;SDS011;9807;48.258;12.690;2023-04-25T04:12:40;5.27;;;2.80;;
19341;SDS011;9807;48.258;12.690;2023-04-25T04:15:06;3.57;;;2.70;;
19341;SDS011;9807;48.258;12.690;2023-04-25T04:17:33;6.20;;;2.90;;
19341;SDS011;9807;48.258;12.690;2023-04-25T04:19:59;3.67;;;2.40;;
19341;SDS011;9807;48.258;12.690;2023-04-25T04:22:25;4.97;;;3.30;;
19341;SDS011;9807;48.258;12.690;2023-04-25T04:24:53;8.63;;;3.80;;
19341;SDS011;9807;48.258;12.690;2023-04-25T04:27:19;7.17;;;4.37;;
19341;SDS011;9807;48.258;12.690;2023-04-25T04:29:46;6.70;;;4.50;;
19341;SDS011;9807;48.258;12.690;2023-04-25T04:32:12;6.00;;;4.37;;
19341;SDS011;9807;48.258;12.690;2023-04-25T04:34:39;5.83;;;4.47;;
19341;SDS011;9807;48.258;12.690;2023-04-25T04:37:06;6.87;;;4.10;;
19341;SDS011;9807;48.258;12.690;2023-04-25T04:39:34;4.70;;;3.37;;
19341;SDS011;9807;48.258;12.690;2023-04-25T04:42:00;6.47;;;2.83;;
19341;SDS011;9807;48.258;12.690;2023-04-25T04:44:29;4.87;;;3.53;;
19341;SDS011;9807;48.258;12.690;2023-04-25T04:46:57;6.27;;;3.67;;
19341;SDS011;9807;48.258;12.690;2023-04-25T04:49:26;9.70;;;4.37;;
19341;SDS011;9807;48.258;12.690;2023-04-25T04:51:52;4.40;;;3.57;;
19341;SDS011;9807;48.258;12.690;2023-04-25T04:54:19;9.63;;;4.83;;
19341;SDS011;9807;48.258;12.690;2023-04-25T04:56:45;7.80;;;4.90;;
19341;SDS011;9807;48.258;12.690;2023-04-25T04:59:11;6.20;;;4.40;;
19341;SDS011;9807;48.258;12.690;2023-04-25T05:01:36;8.60;;;4.80;;
19341;SDS011;9807;48.258;12.690;2023-04-25T05:04:02;7.63;;;5.10;;
19341;SDS011;9807;48.258;12.690;2023-04-25T05:06:28;8.10;;;4.93;;
19341;SDS011;9807;48.258;12.690;2023-04-25T05:08:55;8.90;;;5.00;;
19341;SDS011;9807;48.258;12.690;2023-04-25T05:11:21;9.30;;;5.50;;
19341;SDS011;9807;48.258;12.690;2023-04-25T05:13:48;10.77;;;6.20;;
19341;SDS011;9807;48.258;12.690;2023-04-25T05:16:14;12.97;;;5.67;;
19341;SDS011;9807;48.258;12.690;2023-04-25T05:18:43;7.90;;;5.50;;
19341;SDS011;9807;48.258;12.690;2023-04-25T05:21:09;10.73;;;5.60;;
19341;SDS011;9807;48.258;12.690;2023-04-25T05:23:34;7.87;;;5.20;;
19341;SDS011;9807;48.258;12.690;2023-04-25T05:26:00;11.90;;;5.80;;
19341;SDS011;9807;48.258;12.690;2023-04-25T05:28:28;15.67;;;5.60;;
19341;SDS011;9807;48.258;12.690;2023-04-25T05:30:57;10.90;;;5.17;;
19341;SDS011;9807;48.258;12.690;2023-04-25T05:33:22;7.43;;;4.90;;
19341;SDS011;9807;48.258;12.690;2023-04-25T05:35:48;8.73;;;5.27;;
19341;SDS011;9807;48.258;12.690;2023-04-25T05:38:15;8.47;;;5.00;;
19341;SDS011;9807;48.258;12.690;2023-04-25T05:40:40;8.10;;;4.67;;
19341;SDS011;9807;48.258;12.690;2023-04-25T05:43:07;7.70;;;5.00;;
19341;SDS011;9807;48.258;12.690;2023-04-25T05:45:33;10.53;;;4.90;;
19341;SDS011;9807;48.258;12.690;2023-04-25T05:48:01;8.73;;;4.93;;
19341;SDS011;9807;48.258;12.690;2023-04-25T05:50:27;8.70;;;4.97;;
19341;SDS011;9807;48.258;12.690;2023-04-25T05:52:53;10.67;;;5.07;;
19341;SDS011;9807;48.258;12.690;2023-04-25T05:55:19;6.20;;;5.03;;
19341;SDS011;9807;48.258;12.690;2023-04-25T05:57:44;7.77;;;5.00;;
19341;SDS011;9807;48.258;12.690;2023-04-25T06:00:11;7.30;;;5.03;;
19341;SDS011;9807;48.258;12.690;2023-04-25T06:02:39;9.70;;;4.67;;
19341;SDS011;9807;48.258;12.690;2023-04-25T06:05:05;7.40;;;4.33;;
19341;SDS011;9807;48.258;12.690;2023-04-25T06:07:31;9.27;;;4.57;;
19341;SDS011;9807;48.258;12.690;2023-04-25T06:09:57;9.47;;;4.57;;
19341;SDS011;9807;48.258;12.690;2023-04-25T06:12:26;8.37;;;4.40;;
19341;SDS011;9807;48.258;12.690;2023-04-25T06:14:52;5.60;;;4.40;;
19341;SDS011;9807;48.258;12.690;2023-04-25T06:17:18;8.73;;;4.37;;
19341;SDS011;9807;48.258;12.690;2023-04-25T06:19:43;6.33;;;4.20;;
19341;SDS011;9807;48.258;12.690;2023-04-25T06:22:12;6.67;;;4.10;;
19341;SDS011;9807;48.258;12.690;2023-04-25T06:24:38;7.13;;;4.07;;
19341;SDS011;9807;48.258;12.690;2023-04-25T06:27:07;7.73;;;3.67;;
19341;SDS011;9807;48.258;12.690;2023-04-25T06:29:32;6.93;;;4.03;;
19341;SDS011;9807;48.258;12.690;2023-04-25T06:32:01;6.87;;;4.00;;
19341;SDS011;9807;48.258;12.690;2023-04-25T06:34:27;8.83;;;4.37;;
19341;SDS011;9807;48.258;12.690;2023-04-25T06:36:52;8.47;;;4.10;;
19341;SDS011;9807;48.258;12.690;2023-04-25T06:39:18;6.57;;;3.60;;
19341;SDS011;9807;48.258;12.690;2023-04-25T06:41:45;6.13;;;4.07;;
19341;SDS011;9807;48.258;12.690;2023-04-25T06:44:10;5.80;;;3.00;;
19341;SDS011;9807;48.258;12.690;2023-04-25T06:46:36;8.43;;;2.90;;
19341;SDS011;9807;48.258;12.690;2023-04-25T06:49:02;5.97;;;2.90;;
19341;SDS011;9807;48.258;12.690;2023-04-25T06:51:28;6.80;;;3.30;;
19341;SDS011;9807;48.258;12.690;2023-04-25T06:53:55;7.40;;;2.90;;
19341;SDS011;9807;48.258;12.690;2023-04-25T06:56:21;9.27;;;3.20;;
19341;SDS011;9807;48.258;12.690;2023-04-25T06:58:48;6.07;;;2.87;;
19341;SDS011;9807;48.258;12.690;2023-04-25T07:01:14;5.10;;;3.03;;
19341;SDS011;9807;48.258;12.690;2023-04-25T07:03:40;4.77;;;2.97;;
19341;SDS011;9807;48.258;12.690;2023-04-25T07:06:08;9.30;;;3.30;;
19341;SDS011;9807;48.258;12.690;2023-04-25T07:08:34;10.40;;;3.30;;
19341;SDS011;9807;48.258;12.690;2023-04-25T07:11:00;3.47;;;2.60;;
19341;SDS011;9807;48.258;12.690;2023-04-25T07:13:25;5.17;;;2.43;;
19341;SDS011;9807;48.258;12.690;2023-04-25T07:15:51;8.17;;;2.60;;
19341;SDS011;9807;48.258;12.690;2023-04-25T07:18:17;5.20;;;3.00;;
19341;SDS011;9807;48.258;12.690;2023-04-25T07:20:43;6.93;;;2.87;;
19341;SDS011;9807;48.258;12.690;2023-04-25T07:23:08;7.53;;;2.50;;
19341;SDS011;9807;48.258;12.690;2023-04-25T07:25:37;4.63;;;2.80;;
19341;SDS011;9807;48.258;12.690;2023-04-25T07:28:02;4.40;;;2.80;;
19341;SDS011;9807;48.258;12.690;2023-04-25T07:30:29;3.70;;;2.73;;
19341;SDS011;9807;48.258;12.690;2023-04-25T07:32:55;6.40;;;2.83;;
19341;SDS011;9807;48.258;12.690;2023-04-25T07:35:27;9.87;;;3.17;;
19341;SDS011;9807;48.258;12.690;2023-04-25T07:37:53;4.97;;;3.10;;
19341;SDS011;9807;48.258;12.690;2023-04-25T07:40:19;7.50;;;3.00;;
19341;SDS011;9807;48.258;12.690;2023-04-25T07:42:44;11.20;;;4.00;;
19341;SDS011;9807;48.258;12.690;2023-04-25T07:45:10;6.90;;;3.43;;
19341;SDS011;9807;48.258;12.690;2023-04-25T07:47:36;6.57;;;3.23;;
19341;SDS011;9807;48.258;12.690;2023-04-25T07:50:02;8.13;;;3.63;;
19341;SDS011;9807;48.258;12.690;2023-04-25T07:52:28;5.13;;;3.57;;
19341;SDS011;9807;48.258;12.690;2023-04-25T07:54:54;7.83;;;3.60;;
19341;SDS011;9807;48.258;12.690;2023-04-25T07:57:24;6.53;;;3.20;;
19341;SDS011;9807;48.258;12.690;2023-04-25T07:59:49;8.87;;;3.27;;
19341;SDS011;9807;48.258;12.690;2023-04-25T08:02:18;6.47;;;3.33;;
19341;SDS011;9807;48.258;12.690;2023-04-25T08:04:43;3.67;;;3.10;;
19341;SDS011;9807;48.258;12.690;2023-04-25T08:07:09;8.47;;;3.70;;
19341;SDS011;9807;48.258;12.690;2023-04-25T08:09:35;7.37;;;3.40;;
19341;SDS011;9807;48.258;12.690;2023-04-25T08:12:01;9.00;;;3.60;;
19341;SDS011;9807;48.258;12.690;2023-04-25T08:14:28;7.43;;;3.10;;
19341;SDS011;9807;48.258;12.690;2023-04-25T08:16:56;3.57;;;2.40;;
19341;SDS011;9807;48.258;12.690;2023-04-25T08:19:21;5.77;;;3.93;;
19341;SDS011;9807;48.258;12.690;2023-04-25T08:21:47;6.90;;;2.60;;
19341;SDS011;9807;48.258;12.690;2023-04-25T08:24:13;3.33;;;2.30;;
19341;SDS011;9807;48.258;12.690;2023-04-25T08:26:38;5.83;;;3.10;;
19341;SDS011;9807;48.258;12.690;2023-04-25T08:29:05;4.00;;;3.00;;
19341;SDS011;9807;48.258;12.690;2023-04-25T08:31:34;4.50;;;2.93;;
19341;SDS011;9807;48.258;12.690;2023-04-25T08:34:00;5.73;;;3.77;;
19341;SDS011;9807;48.258;12.690;2023-04-25T08:36:25;6.67;;;3.37;;
19341;SDS011;9807;48.258;12.690;2023-04-25T08:38:53;4.43;;;2.33;;
19341;SDS011;9807;48.258;12.690;2023-04-25T08:41:19;5.13;;;3.20;;
19341;SDS011;9807;48.258;12.690;2023-04-25T08:43:47;6.23;;;2.93;;
19341;SDS011;9807;48.258;12.690;2023-04-25T08:46:17;9.80;;;3.70;;
19341;SDS011;9807;48.258;12.690;2023-04-25T08:48:46;5.37;;;3.30;;
19341;SDS011;9807;48.258;12.690;2023-04-25T08:51:21;7.43;;;4.20;;
19341;SDS011;9807;48.258;12.690;2023-04-25T08:53:51;7.37;;;4.03;;
19341;SDS011;9807;48.258;12.690;2023-04-25T08:56:18;11.17;;;4.70;;
19341;SDS011;9807;48.258;12.690;2023-04-25T08:58:47;9.03;;;3.70;;
19341;SDS011;9807;48.258;12.690;2023-04-25T09:01:15;4.60;;;2.90;;
19341;SDS011;9807;48.258;12.690;2023-04-25T09:03:44;6.63;;;3.00;;
19341;SDS011;9807;48.258;12.690;2023-04-25T09:06:13;5.87;;;3.07;;
19341;SDS011;9807;48.258;12.690;2023-04-25T09:08:39;5.97;;;3.10;;
19341;SDS011;9807;48.258;12.690;2023-04-25T09:11:06;6.07;;;3.27;;
19341;SDS011;9807;48.258;12.690;2023-04-25T09:13:32;7.40;;;3.33;;
19341;SDS011;9807;48.258;12.690;2023-04-25T09:16:01;7.50;;;2.90;;
19341;SDS011;9807;48.258;12.690;2023-04-25T09:18:28;4.90;;;2.77;;
19341;SDS011;9807;48.258;12.690;2023-04-25T09:21:05;5.00;;;2.87;;
19341;SDS011;9807;48.258;12.690;2023-04-25T09:23:38;7.77;;;3.37;;
19341;SDS011;9807;48.258;12.690;2023-04-25T09:26:08;6.13;;;2.50;;
19341;SDS011;9807;48.258;12.690;2023-04-25T09:28:34;5.63;;;3.00;;
19341;SDS011;9807;48.258;12.690;2023-04-25T09:31:03;4.33;;;2.60;;
19341;SDS011;9807;48.258;12.690;2023-04-25T09:33:31;2.57;;;2.37;;
19341;SDS011;9807;48.258;12.690;2023-04-25T09:36:05;6.27;;;2.43;;
19341;SDS011;9807;48.258;12.690;2023-04-25T09:38:45;4.20;;;2.23;;
19341;SDS011;9807;48.258;12.690;2023-04-25T09:41:11;4.03;;;2.10;;
19341;SDS011;9807;48.258;12.690;2023-04-25T09:43:37;4.03;;;2.20;;
19341;SDS011;9807;48.258;12.690;2023-04-25T09:46:08;3.43;;;2.30;;
19341;SDS011;9807;48.258;12.690;2023-04-25T09:48:36;7.03;;;2.33;;
19341;SDS011;9807;48.258;12.690;2023-04-25T09:51:12;5.73;;;2.87;;
19341;SDS011;9807;48.258;12.690;2023-04-25T09:53:47;5.87;;;2.63;;
19341;SDS011;9807;48.258;12.690;2023-04-25T09:56:16;4.87;;;2.67;;
19341;SDS011;9807;48.258;12.690;2023-04-25T09:58:42;3.97;;;2.60;;
19341;SDS011;9807;48.258;12.690;2023-04-25T10:01:11;4.00;;;2.73;;
19341;SDS011;9807;48.258;12.690;2023-04-25T10:03:38;2.97;;;2.37;;
19341;SDS011;9807;48.258;12.690;2023-04-25T10:06:07;3.93;;;2.10;;
19341;SDS011;9807;48.258;12.690;2023-04-25T10:08:50;4.17;;;2.57;;
19341;SDS011;9807;48.258;12.690;2023-04-25T10:11:20;3.93;;;2.50;;
19341;SDS011;9807;48.258;12.690;2023-04-25T10:13:48;3.43;;;2.50;;
19341;SDS011;9807;48.258;12.690;2023-04-25T10:16:15;4.20;;;2.50;;
19341;SDS011;9807;48.258;12.690;2023-04-25T10:18:47;5.37;;;2.60;;
19341;SDS011;9807;48.258;12.690;2023-04-25T10:21:23;8.63;;;2.50;;
19341;SDS011;9807;48.258;12.690;2023-04-25T10:23:53;5.03;;;2.37;;
19341;SDS011;9807;48.258;12.690;2023-04-25T10:26:25;6.30;;;2.53;;
19341;SDS011;9807;48.258;12.690;2023-04-25T10:29:02;4.50;;;2.50;;
19341;SDS011;9807;48.258;12.690;2023-04-25T10:31:29;3.90;;;2.13;;
19341;SDS011;9807;48.258;12.690;2023-04-25T10:33:56;4.70;;;2.70;;
19341;SDS011;9807;48.258;12.690;2023-04-25T10:36:22;6.70;;;2.60;;
19341;SDS011;9807;48.258;12.690;2023-04-25T10:38:52;3.70;;;2.50;;
19341;SDS011;9807;48.258;12.690;2023-04-25T10:41:19;4.07;;;2.57;;
19341;SDS011;9807;48.258;12.690;2023-04-25T10:43:47;5.67;;;2.93;;
19341;SDS011;9807;48.258;12.690;2023-04-25T10:46:16;5.47;;;3.07;;
19341;SDS011;9807;48.258;12.690;2023-04-25T10:49:05;3.33;;;2.37;;
19341;SDS011;9807;48.258;12.690;2023-04-25T10:51:32;2.03;;;1.33;;
19341;SDS011;9807;48.258;12.690;2023-04-25T10:54:03;2.20;;;1.10;;
19341;SDS011;9807;48.258;12.690;2023-04-25T10:56:32;1.30;;;1.00;;
19341;SDS011;9807;48.258;12.690;2023-04-25T10:59:15;4.50;;;1.30;;
19341;SDS011;9807;48.258;12.690;2023-04-25T11:01:47;3.67;;;1.20;;
19341;SDS011;9807;48.258;12.690;2023-04-25T11:04:28;1.23;;;1.13;;
19341;SDS011;9807;48.258;12.690;2023-04-25T11:09:23;1.40;;;1.30;;
19341;SDS011;9807;48.258;12.690;2023-04-25T11:11:57;2.40;;;1.50;;
19341;SDS011;9807;48.258;12.690;2023-04-25T11:14:27;2.10;;;1.70;;
19341;SDS011;9807;48.258;12.690;2023-04-25T11:16:56;2.00;;;1.80;;
19341;SDS011;9807;48.258;12.690;2023-04-25T11:19:23;3.93;;;2.07;;
19341;SDS011;9807;48.258;12.690;2023-04-25T11:21:49;3.60;;;2.13;;
19341;SDS011;9807;48.258;12.690;2023-04-25T11:24:18;2.47;;;2.27;;
19341;SDS011;9807;48.258;12.690;2023-04-25T11:26:47;3.50;;;2.27;;
19341;SDS011;9807;48.258;12.690;2023-04-25T11:29:13;2.80;;;2.00;;
19341;SDS011;9807;48.258;12.690;2023-04-25T11:31:39;1.47;;;1.37;;
19341;SDS011;9807;48.258;12.690;2023-04-25T11:34:10;2.60;;;1.80;;
19341;SDS011;9807;48.258;12.690;2023-04-25T11:36:36;4.03;;;2.20;;
19341;SDS011;9807;48.258;12.690;2023-04-25T11:39:03;5.83;;;2.50;;
19341;SDS011;9807;48.258;12.690;2023-04-25T11:41:30;1.70;;;1.60;;
19341;SDS011;9807;48.258;12.690;2023-04-25T11:43:56;4.07;;;2.10;;
19341;SDS011;9807;48.258;12.690;2023-04-25T11:46:22;4.77;;;2.00;;
19341;SDS011;9807;48.258;12.690;2023-04-25T11:48:48;4.70;;;2.20;;
19341;SDS011;9807;48.258;12.690;2023-04-25T11:51:15;2.17;;;1.63;;
19341;SDS011;9807;48.258;12.690;2023-04-25T11:53:41;2.47;;;1.80;;
19341;SDS011;9807;48.258;12.690;2023-04-25T11:56:09;2.40;;;1.50;;
19341;SDS011;9807;48.258;12.690;2023-04-25T12:01:25;2.00;;;1.80;;
19341;SDS011;9807;48.258;12.690;2023-04-25T12:03:58;5.27;;;2.20;;
19341;SDS011;9807;48.258;12.690;2023-04-25T12:06:37;2.20;;;1.70;;
19341;SDS011;9807;48.258;12.690;2023-04-25T12:09:06;2.13;;;1.83;;
19341;SDS011;9807;48.258;12.690;2023-04-25T12:11:40;5.07;;;3.27;;
19341;SDS011;9807;48.258;12.690;2023-04-25T12:14:09;4.83;;;3.10;;
19341;SDS011;9807;48.258;12.690;2023-04-25T12:19:19;4.27;;;2.83;;
19341;SDS011;9807;48.258;12.690;2023-04-25T12:21:45;9.53;;;5.10;;
19341;SDS011;9807;48.258;12.690;2023-04-25T12:24:18;3.10;;;2.80;;
19341;SDS011;9807;48.258;12.690;2023-04-25T12:26:50;6.40;;;4.00;;
19341;SDS011;9807;48.258;12.690;2023-04-25T12:29:28;6.93;;;3.27;;
19341;SDS011;9807;48.258;12.690;2023-04-25T12:31:55;6.70;;;3.27;;
19341;SDS011;9807;48.258;12.690;2023-04-25T12:34:21;7.87;;;3.60;;
19341;SDS011;9807;48.258;12.690;2023-04-25T12:36:47;4.80;;;3.20;;
19341;SDS011;9807;48.258;12.690;2023-04-25T12:39:14;4.83;;;2.80;;
19341;SDS011;9807;48.258;12.690;2023-04-25T12:41:48;4.20;;;3.10;;
19341;SDS011;9807;48.258;12.690;2023-04-25T12:44:15;6.53;;;3.90;;
19341;SDS011;9807;48.258;12.690;2023-04-25T12:46:42;5.30;;;3.20;;
19341;SDS011;9807;48.258;12.690;2023-04-25T12:49:08;3.83;;;3.53;;
19341;SDS011;9807;48.258;12.690;2023-04-25T12:51:42;9.63;;;6.37;;
19341;SDS011;9807;48.258;12.690;2023-04-25T12:54:13;10.33;;;4.40;;
19341;SDS011;9807;48.258;12.690;2023-04-25T12:56:42;7.80;;;5.00;;
19341;SDS011;9807;48.258;12.690;2023-04-25T12:59:11;6.73;;;4.40;;
19341;SDS011;9807;48.258;12.690;2023-04-25T13:01:36;14.30;;;4.40;;
19341;SDS011;9807;48.258;12.690;2023-04-25T13:04:02;8.17;;;4.77;;
19341;SDS011;9807;48.258;12.690;2023-04-25T13:06:28;4.37;;;2.97;;
19341;SDS011;9807;48.258;12.690;2023-04-25T13:08:56;5.10;;;3.40;;
19341;SDS011;9807;48.258;12.690;2023-04-25T13:11:22;4.23;;;3.10;;
19341;SDS011;9807;48.258;12.690;2023-04-25T13:13:48;3.73;;;3.07;;
19341;SDS011;9807;48.258;12.690;2023-04-25T13:16:16;3.70;;;2.93;;
19341;SDS011;9807;48.258;12.690;2023-04-25T13:18:45;4.80;;;3.20;;
19341;SDS011;9807;48.258;12.690;2023-04-25T13:21:11;5.13;;;3.10;;
19341;SDS011;9807;48.258;12.690;2023-04-25T13:23:36;4.00;;;2.83;;
19341;SDS011;9807;48.258;12.690;2023-04-25T13:26:02;6.47;;;2.97;;
19341;SDS011;9807;48.258;12.690;2023-04-25T13:28:36;4.17;;;3.03;;
19341;SDS011;9807;48.258;12.690;2023-04-25T13:31:06;4.77;;;3.50;;
19341;SDS011;9807;48.258;12.690;2023-04-25T13:33:34;6.30;;;3.40;;
19341;SDS011;9807;48.258;12.690;2023-04-25T13:36:00;4.97;;;3.10;;
19341;SDS011;9807;48.258;12.690;2023-04-25T13:38:26;7.50;;;2.67;;
19341;SDS011;9807;48.258;12.690;2023-04-25T13:40:52;3.87;;;2.87;;
19341;SDS011;9807;48.258;12.690;2023-04-25T13:43:19;5.50;;;3.07;;
19341;SDS011;9807;48.258;12.690;2023-04-25T13:45:49;6.70;;;3.43;;
19341;SDS011;9807;48.258;12.690;2023-04-25T13:48:17;8.67;;;3.60;;
19341;SDS011;9807;48.258;12.690;2023-04-25T13:50:45;4.83;;;2.70;;
19341;SDS011;9807;48.258;12.690;2023-04-25T13:53:11;5.90;;;3.57;;
19341;SDS011;9807;48.258;12.690;2023-04-25T13:55:37;4.60;;;3.10;;
19341;SDS011;9807;48.258;12.690;2023-04-25T13:58:03;6.93;;;3.67;;
19341;SDS011;9807;48.258;12.690;2023-04-25T14:00:33;8.77;;;4.10;;
19341;SDS011;9807;48.258;12.690;2023-04-25T14:03:00;6.70;;;3.67;;
19341;SDS011;9807;48.258;12.690;2023-04-25T14:05:31;6.60;;;4.70;;
19341;SDS011;9807;48.258;12.690;2023-04-25T14:07:59;6.63;;;4.43;;
19341;SDS011;9807;48.258;12.690;2023-04-25T14:10:25;5.73;;;3.67;;
19341;SDS011;9807;48.258;12.690;2023-04-25T14:12:51;6.73;;;3.57;;
19341;SDS011;9807;48.258;12.690;2023-04-25T14:15:17;4.17;;;3.07;;
19341;SDS011;9807;48.258;12.690;2023-04-25T14:17:42;3.47;;;2.67;;
19341;SDS011;9807;48.258;12.690;2023-04-25T14:20:13;3.47;;;2.90;;
19341;SDS011;9807;48.258;12.690;2023-04-25T14:22:39;4.60;;;3.07;;
19341;SDS011;9807;48.258;12.690;2023-04-25T14:25:08;4.13;;;2.80;;
19341;SDS011;9807;48.258;12.690;2023-04-25T14:27:35;5.37;;;3.40;;
19341;SDS011;9807;48.258;12.690;2023-04-25T14:30:00;3.13;;;2.20;;
19341;SDS011;9807;48.258;12.690;2023-04-25T14:32:26;6.00;;;2.90;;
19341;SDS011;9807;48.258;12.690;2023-04-25T14:34:52;4.23;;;2.57;;
19341;SDS011;9807;48.258;12.690;2023-04-25T14:37:18;5.20;;;2.90;;
19341;SDS011;9807;48.258;12.690;2023-04-25T14:39:43;4.10;;;2.20;;
19341;SDS011;9807;48.258;12.690;2023-04-25T14:42:09;3.63;;;1.80;;
19341;SDS011;9807;48.258;12.690;2023-04-25T14:44:45;2.50;;;1.70;;
19341;SDS011;9807;48.258;12.690;2023-04-25T14:47:14;3.03;;;2.10;;
19341;SDS011;9807;48.258;12.690;2023-04-25T14:49:40;3.20;;;2.20;;
19341;SDS011;9807;48.258;12.690;2023-04-25T14:52:06;2.97;;;2.30;;
19341;SDS011;9807;48.258;12.690;2023-04-25T14:54:35;6.57;;;2.87;;
19341;SDS011;9807;48.258;12.690;2023-04-25T14:57:01;3.70;;;2.50;;